sensor_id;sensor_type;location;lat;lon;timestamp;pressure;altitude;pressure_sealevel;temperature;humidity
74529;BME280;63009;52.584;5.932;2023-09-12T00:02:02;101235.22;;;19.36;100.00
74529;BME280;63009;52.584;5.932;2023-09-12T00:04:28;101244.53;;;19.32;100.00
74529;BME280;63009;52.584;5.932;2023-09-12T00:06:53;101259.63;;;19.33;100.00
74529;BME280;63009;52.584;5.932;2023-09-12T00:09:18;101234.84;;;19.10;100.00
74529;BME280;63009;52.584;5.932;2023-09-12T00:11:44;101266.75;;;19.22;100.00
74529;BME280;63009;52.584;5.932;2023-09-12T00:14:09;101268.47;;;19.23;100.00
74529;BME280;63009;52.584;5.932;2023-09-12T00:16:34;101260.97;;;19.17;100.00
74529;BME280;63009;52.584;5.932;2023-09-12T00:19:00;101281.00;;;19.23;100.00
74529;BME280;63009;52.584;5.932;2023-09-12T00:21:25;101279.59;;;19.19;100.00
74529;BME280;63009;52.584;5.932;2023-09-12T00:23:51;101263.50;;;19.19;100.00
74529;BME280;63009;52.584;5.932;2023-09-12T00:26:16;101263.31;;;19.11;100.00
74529;BME280;63009;52.584;5.932;2023-09-12T00:28:41;101264.16;;;19.11;100.00
74529;BME280;63009;52.584;5.932;2023-09-12T00:31:07;101254.72;;;19.07;100.00
74529;BME280;63009;52.584;5.932;2023-09-12T00:33:32;101255.25;;;19.01;100.00
74529;BME280;63009;52.584;5.932;2023-09-12T00:35:58;101250.91;;;19.10;100.00
74529;BME280;63009;52.584;5.932;2023-09-12T00:38:23;101244.00;;;19.07;100.00
74529;BME280;63009;52.584;5.932;2023-09-12T00:40:49;101243.56;;;19.02;100.00
74529;BME280;63009;52.584;5.932;2023-09-12T00:43:15;101235.34;;;18.94;100.00
74529;BME280;63009;52.584;5.932;2023-09-12T00:45:41;101248.19;;;19.00;100.00
74529;BME280;63009;52.584;5.932;2023-09-12T00:48:07;101244.09;;;18.96;100.00
74529;BME280;63009;52.584;5.932;2023-09-12T00:50:33;101241.09;;;18.89;100.00
74529;BME280;63009;52.584;5.932;2023-09-12T00:52:59;101237.81;;;18.86;100.00
74529;BME280;63009;52.584;5.932;2023-09-12T00:55:26;101236.97;;;18.85;100.00
74529;BME280;63009;52.584;5.932;2023-09-12T00:57:52;101238.38;;;18.80;100.00
74529;BME280;63009;52.584;5.932;2023-09-12T01:00:18;101246.25;;;18.81;100.00
74529;BME280;63009;52.584;5.932;2023-09-12T01:02:46;101247.66;;;18.76;100.00
74529;BME280;63009;52.584;5.932;2023-09-12T01:05:13;101257.19;;;18.68;100.00
74529;BME280;63009;52.584;5.932;2023-09-12T01:07:39;101255.75;;;18.64;100.00
74529;BME280;63009;52.584;5.932;2023-09-12T01:10:05;101255.16;;;18.61;100.00
74529;BME280;63009;52.584;5.932;2023-09-12T01:12:31;101244.69;;;18.58;100.00
74529;BME280;63009;52.584;5.932;2023-09-12T01:14:56;101249.59;;;18.53;100.00
74529;BME280;63009;52.584;5.932;2023-09-12T01:17:25;101256.63;;;18.54;100.00
74529;BME280;63009;52.584;5.932;2023-09-12T01:19:52;101256.06;;;18.50;100.00
74529;BME280;63009;52.584;5.932;2023-09-12T01:28:23;101235.69;;;18.38;100.00
74529;BME280;63009;52.584;5.932;2023-09-12T01:30:50;101249.91;;;18.38;100.00
74529;BME280;63009;52.584;5.932;2023-09-12T01:33:17;101243.13;;;18.34;100.00
74529;BME280;63009;52.584;5.932;2023-09-12T01:35:42;101245.22;;;18.31;100.00
74529;BME280;63009;52.584;5.932;2023-09-12T01:38:08;101247.06;;;18.30;100.00
74529;BME280;63009;52.584;5.932;2023-09-12T01:40:44;101245.31;;;18.29;100.00
74529;BME280;63009;52.584;5.932;2023-09-12T01:43:11;101265.88;;;18.29;100.00
74529;BME280;63009;52.584;5.932;2023-09-12T01:45:37;101265.31;;;18.25;100.00
74529;BME280;63009;52.584;5.932;2023-09-12T01:48:05;101260.34;;;18.21;100.00
74529;BME280;63009;52.584;5.932;2023-09-12T01:50:32;101260.97;;;18.13;100.00
74529;BME280;63009;52.584;5.932;2023-09-12T01:52:58;101263.66;;;18.13;100.00
74529;BME280;63009;52.584;5.932;2023-09-12T01:55:24;101255.03;;;18.09;100.00
74529;BME280;63009;52.584;5.932;2023-09-12T01:57:50;101255.03;;;18.09;100.00
74529;BME280;63009;52.584;5.932;2023-09-12T02:00:17;101250.66;;;18.08;100.00
74529;BME280;63009;52.584;5.932;2023-09-12T02:02:43;101251.50;;;18.09;100.00
74529;BME280;63009;52.584;5.932;2023-09-12T02:05:15;101239.16;;;17.97;100.00
74529;BME280;63009;52.584;5.932;2023-09-12T02:07:43;101246.91;;;18.00;100.00
74529;BME280;63009;52.584;5.932;2023-09-12T02:10:09;101254.59;;;18.04;100.00
74529;BME280;63009;52.584;5.932;2023-09-12T02:12:37;101260.66;;;18.06;100.00
74529;BME280;63009;52.584;5.932;2023-09-12T02:15:03;101263.44;;;18.05;100.00
74529;BME280;63009;52.584;5.932;2023-09-12T02:17:29;101263.44;;;18.05;100.00
74529;BME280;63009;52.584;5.932;2023-09-12T02:19:54;101267.44;;;18.10;100.00
74529;BME280;63009;52.584;5.932;2023-09-12T02:22:19;101258.69;;;18.08;100.00
74529;BME280;63009;52.584;5.932;2023-09-12T02:24:45;101259.09;;;18.04;100.00
74529;BME280;63009;52.584;5.932;2023-09-12T02:27:10;101264.31;;;18.05;100.00
74529;BME280;63009;52.584;5.932;2023-09-12T02:29:38;101256.16;;;18.07;100.00
74529;BME280;63009;52.584;5.932;2023-09-12T02:32:03;101256.41;;;18.04;100.00
74529;BME280;63009;52.584;5.932;2023-09-12T02:34:29;101240.00;;;17.97;100.00
74529;BME280;63009;52.584;5.932;2023-09-12T02:36:54;101261.88;;;18.02;100.00
74529;BME280;63009;52.584;5.932;2023-09-12T02:39:19;101264.56;;;18.02;100.00
74529;BME280;63009;52.584;5.932;2023-09-12T02:41:44;101225.22;;;17.82;100.00
74529;BME280;63009;52.584;5.932;2023-09-12T02:44:10;101255.34;;;17.95;100.00
74529;BME280;63009;52.584;5.932;2023-09-12T02:46:36;101251.22;;;17.91;100.00
74529;BME280;63009;52.584;5.932;2023-09-12T02:49:01;101261.06;;;17.91;100.00
74529;BME280;63009;52.584;5.932;2023-09-12T02:51:27;101237.63;;;17.83;100.00
74529;BME280;63009;52.584;5.932;2023-09-12T02:53:52;101254.38;;;17.85;100.00
74529;BME280;63009;52.584;5.932;2023-09-12T02:56:17;101239.84;;;17.78;100.00
74529;BME280;63009;52.584;5.932;2023-09-12T02:58:46;101231.81;;;17.78;100.00
74529;BME280;63009;52.584;5.932;2023-09-12T03:01:15;101243.22;;;17.80;100.00
74529;BME280;63009;52.584;5.932;2023-09-12T03:03:41;101246.75;;;17.80;100.00
74529;BME280;63009;52.584;5.932;2023-09-12T03:06:06;101241.53;;;17.79;100.00
74529;BME280;63009;52.584;5.932;2023-09-12T03:08:31;101245.19;;;17.78;100.00
74529;BME280;63009;52.584;5.932;2023-09-12T03:10:57;101244.47;;;17.76;100.00
74529;BME280;63009;52.584;5.932;2023-09-12T03:13:26;101247.50;;;17.71;100.00
74529;BME280;63009;52.584;5.932;2023-09-12T03:15:51;101251.28;;;17.69;100.00
74529;BME280;63009;52.584;5.932;2023-09-12T03:18:17;101248.81;;;17.66;100.00
74529;BME280;63009;52.584;5.932;2023-09-12T03:20:42;101246.16;;;17.66;100.00
74529;BME280;63009;52.584;5.932;2023-09-12T03:23:07;101248.38;;;17.61;100.00
74529;BME280;63009;52.584;5.932;2023-09-12T03:25:39;101252.25;;;17.57;100.00
74529;BME280;63009;52.584;5.932;2023-09-12T03:28:05;101241.47;;;17.47;100.00
74529;BME280;63009;52.584;5.932;2023-09-12T03:30:35;101254.69;;;17.48;100.00
74529;BME280;63009;52.584;5.932;2023-09-12T03:33:01;101248.38;;;17.49;100.00
74529;BME280;63009;52.584;5.932;2023-09-12T03:35:28;101246.88;;;17.57;100.00
74529;BME280;63009;52.584;5.932;2023-09-12T03:37:53;101249.81;;;17.54;100.00
74529;BME280;63009;52.584;5.932;2023-09-12T03:40:19;101248.97;;;17.53;100.00
74529;BME280;63009;52.584;5.932;2023-09-12T03:42:44;101248.25;;;17.51;100.00
74529;BME280;63009;52.584;5.932;2023-09-12T03:45:10;101249.09;;;17.51;100.00
74529;BME280;63009;52.584;5.932;2023-09-12T03:47:35;101243.75;;;17.51;100.00
74529;BME280;63009;52.584;5.932;2023-09-12T03:50:00;101252.75;;;17.50;100.00
74529;BME280;63009;52.584;5.932;2023-09-12T03:52:26;101247.66;;;17.47;100.00
74529;BME280;63009;52.584;5.932;2023-09-12T03:54:51;101245.72;;;17.49;100.00
74529;BME280;63009;52.584;5.932;2023-09-12T03:57:16;101239.25;;;17.52;100.00
74529;BME280;63009;52.584;5.932;2023-09-12T03:59:41;101244.72;;;17.50;100.00
74529;BME280;63009;52.584;5.932;2023-09-12T04:02:08;101238.66;;;17.48;100.00
74529;BME280;63009;52.584;5.932;2023-09-12T04:04:33;101232.34;;;17.49;100.00
74529;BME280;63009;52.584;5.932;2023-09-12T04:06:58;101230.16;;;17.43;100.00
74529;BME280;63009;52.584;5.932;2023-09-12T04:09:24;101216.91;;;17.42;100.00
74529;BME280;63009;52.584;5.932;2023-09-12T04:11:49;101216.06;;;17.41;100.00
74529;BME280;63009;52.584;5.932;2023-09-12T04:14:14;101214.88;;;17.34;100.00
74529;BME280;63009;52.584;5.932;2023-09-12T04:16:40;101227.25;;;17.35;100.00
74529;BME280;63009;52.584;5.932;2023-09-12T04:19:05;101222.19;;;17.32;100.00
74529;BME280;63009;52.584;5.932;2023-09-12T04:21:30;101224.72;;;17.34;100.00
74529;BME280;63009;52.584;5.932;2023-09-12T04:23:55;101218.75;;;17.30;100.00
74529;BME280;63009;52.584;5.932;2023-09-12T04:26:21;101218.66;;;17.32;100.00
74529;BME280;63009;52.584;5.932;2023-09-12T04:28:47;101199.00;;;17.21;100.00
74529;BME280;63009;52.584;5.932;2023-09-12T04:31:12;101212.81;;;17.27;100.00
74529;BME280;63009;52.584;5.932;2023-09-12T04:33:38;101196.44;;;17.20;100.00
74529;BME280;63009;52.584;5.932;2023-09-12T04:36:03;101215.00;;;17.33;100.00
74529;BME280;63009;52.584;5.932;2023-09-12T04:38:29;101214.16;;;17.32;100.00
74529;BME280;63009;52.584;5.932;2023-09-12T04:40:55;101214.16;;;17.32;100.00
74529;BME280;63009;52.584;5.932;2023-09-12T04:43:21;101218.66;;;17.32;100.00
74529;BME280;63009;52.584;5.932;2023-09-12T04:45:46;101214.88;;;17.34;100.00
74529;BME280;63009;52.584;5.932;2023-09-12T04:48:11;101205.88;;;17.35;100.00
74529;BME280;63009;52.584;5.932;2023-09-12T04:50:43;101200.81;;;17.32;100.00
74529;BME280;63009;52.584;5.932;2023-09-12T04:53:08;101202.38;;;17.35;100.00
74529;BME280;63009;52.584;5.932;2023-09-12T04:55:37;101201.28;;;17.37;100.00
74529;BME280;63009;52.584;5.932;2023-09-12T04:58:03;101201.28;;;17.37;100.00
74529;BME280;63009;52.584;5.932;2023-09-12T05:00:29;101199.81;;;17.33;100.00
74529;BME280;63009;52.584;5.932;2023-09-12T05:02:54;101200.41;;;17.37;100.00
74529;BME280;63009;52.584;5.932;2023-09-12T05:05:19;101203.81;;;17.39;100.00
74529;BME280;63009;52.584;5.932;2023-09-12T05:07:45;101198.34;;;17.40;100.00
74529;BME280;63009;52.584;5.932;2023-09-12T05:10:10;101205.38;;;17.41;100.00
74529;BME280;63009;52.584;5.932;2023-09-12T05:12:35;101203.81;;;17.39;100.00
74529;BME280;63009;52.584;5.932;2023-09-12T05:15:00;101209.88;;;17.41;100.00
74529;BME280;63009;52.584;5.932;2023-09-12T05:17:26;101215.22;;;17.41;100.00
74529;BME280;63009;52.584;5.932;2023-09-12T05:19:52;101209.63;;;17.44;100.00
74529;BME280;63009;52.584;5.932;2023-09-12T05:22:18;101208.78;;;17.43;100.00
74529;BME280;63009;52.584;5.932;2023-09-12T05:24:43;101219.25;;;17.46;100.00
74529;BME280;63009;52.584;5.932;2023-09-12T05:27:08;101211.22;;;17.46;100.00
74529;BME280;63009;52.584;5.932;2023-09-12T05:29:33;101209.41;;;17.47;100.00
74529;BME280;63009;52.584;5.932;2023-09-12T05:31:59;101210.00;;;17.50;100.00
74529;BME280;63009;52.584;5.932;2023-09-12T05:34:24;101207.19;;;17.52;100.00
74529;BME280;63009;52.584;5.932;2023-09-12T05:36:49;101211.44;;;17.55;100.00
74529;BME280;63009;52.584;5.932;2023-09-12T05:39:15;101207.91;;;17.54;100.00
74529;BME280;63009;52.584;5.932;2023-09-12T05:41:40;101213.72;;;17.59;100.00
74529;BME280;63009;52.584;5.932;2023-09-12T05:44:05;101214.47;;;17.61;100.00
74529;BME280;63009;52.584;5.932;2023-09-12T05:46:30;101221.50;;;17.62;100.00
74529;BME280;63009;52.584;5.932;2023-09-12T05:48:56;101226.59;;;17.65;100.00
74529;BME280;63009;52.584;5.932;2023-09-12T05:51:21;101220.28;;;17.66;100.00
74529;BME280;63009;52.584;5.932;2023-09-12T05:53:46;101226.97;;;17.72;100.00
74529;BME280;63009;52.584;5.932;2023-09-12T05:56:11;101227.72;;;17.74;100.00
74529;BME280;63009;52.584;5.932;2023-09-12T05:58:37;101231.69;;;17.79;100.00
74529;BME280;63009;52.584;5.932;2023-09-12T06:01:06;101233.25;;;17.82;100.00
74529;BME280;63009;52.584;5.932;2023-09-12T06:03:32;101244.41;;;17.87;100.00
74529;BME280;63009;52.584;5.932;2023-09-12T06:05:57;101250.50;;;17.89;100.00
74529;BME280;63009;52.584;5.932;2023-09-12T06:08:22;101248.41;;;17.93;100.00
74529;BME280;63009;52.584;5.932;2023-09-12T06:10:47;101248.03;;;17.97;100.00
74529;BME280;63009;52.584;5.932;2023-09-12T06:13:14;101257.25;;;18.04;100.00
74529;BME280;63009;52.584;5.932;2023-09-12T06:15:39;101248.00;;;18.08;100.00
74529;BME280;63009;52.584;5.932;2023-09-12T06:18:06;101255.38;;;18.16;100.00
74529;BME280;63009;52.584;5.932;2023-09-12T06:20:31;101259.09;;;18.25;100.00
74529;BME280;63009;52.584;5.932;2023-09-12T06:22:56;101242.19;;;18.24;100.00
74529;BME280;63009;52.584;5.932;2023-09-12T06:25:22;101259.50;;;18.41;100.00
74529;BME280;63009;52.584;5.932;2023-09-12T06:27:47;101264.09;;;18.50;100.00
74529;BME280;63009;52.584;5.932;2023-09-12T06:30:12;101256.97;;;18.60;100.00
74529;BME280;63009;52.584;5.932;2023-09-12T06:32:38;101264.31;;;18.79;100.00
74529;BME280;63009;52.584;5.932;2023-09-12T06:35:03;101245.00;;;18.85;100.00
74529;BME280;63009;52.584;5.932;2023-09-12T06:37:29;101267.25;;;19.07;100.00
74529;BME280;63009;52.584;5.932;2023-09-12T06:39:54;101260.69;;;19.20;100.00
74529;BME280;63009;52.584;5.932;2023-09-12T06:42:19;101267.38;;;19.36;100.00
74529;BME280;63009;52.584;5.932;2023-09-12T06:44:45;101264.03;;;19.43;100.00
74529;BME280;63009;52.584;5.932;2023-09-12T06:47:10;101262.56;;;19.60;100.00
74529;BME280;63009;52.584;5.932;2023-09-12T06:49:35;101264.00;;;19.83;100.00
74529;BME280;63009;52.584;5.932;2023-09-12T06:52:03;101263.88;;;19.95;100.00
74529;BME280;63009;52.584;5.932;2023-09-12T06:54:28;101270.94;;;20.05;100.00
74529;BME280;63009;52.584;5.932;2023-09-12T06:56:54;101266.28;;;20.07;100.00
74529;BME280;63009;52.584;5.932;2023-09-12T06:59:19;101278.59;;;20.29;100.00
74529;BME280;63009;52.584;5.932;2023-09-12T07:01:44;101267.41;;;20.34;100.00
74529;BME280;63009;52.584;5.932;2023-09-12T07:04:10;101266.75;;;20.41;100.00
74529;BME280;63009;52.584;5.932;2023-09-12T07:06:35;101271.22;;;20.70;100.00
74529;BME280;63009;52.584;5.932;2023-09-12T07:09:00;101278.38;;;20.89;100.00
74529;BME280;63009;52.584;5.932;2023-09-12T07:11:26;101270.56;;;20.95;100.00
74529;BME280;63009;52.584;5.932;2023-09-12T07:13:51;101282.44;;;21.02;100.00
74529;BME280;63009;52.584;5.932;2023-09-12T07:16:16;101278.53;;;20.87;100.00
74529;BME280;63009;52.584;5.932;2023-09-12T07:18:41;101280.53;;;20.85;100.00
74529;BME280;63009;52.584;5.932;2023-09-12T07:21:07;101285.91;;;20.85;100.00
74529;BME280;63009;52.584;5.932;2023-09-12T07:23:32;101284.91;;;20.67;100.00
74529;BME280;63009;52.584;5.932;2023-09-12T07:25:58;101280.97;;;20.71;100.00
74529;BME280;63009;52.584;5.932;2023-09-12T07:28:24;101292.72;;;20.70;100.00
74529;BME280;63009;52.584;5.932;2023-09-12T07:30:49;101292.72;;;20.70;100.00
74529;BME280;63009;52.584;5.932;2023-09-12T07:33:15;101298.63;;;20.73;100.00
74529;BME280;63009;52.584;5.932;2023-09-12T07:35:40;101299.06;;;20.69;100.00
74529;BME280;63009;52.584;5.932;2023-09-12T07:38:05;101296.38;;;20.69;100.00
74529;BME280;63009;52.584;5.932;2023-09-12T07:40:30;101294.38;;;20.81;100.00
74529;BME280;63009;52.584;5.932;2023-09-12T07:42:56;101290.88;;;20.70;100.00
74529;BME280;63009;52.584;5.932;2023-09-12T07:45:21;101301.72;;;20.79;100.00
74529;BME280;63009;52.584;5.932;2023-09-12T07:47:47;101301.41;;;20.91;100.00
74529;BME280;63009;52.584;5.932;2023-09-12T07:50:12;101305.19;;;21.08;100.00
74529;BME280;63009;52.584;5.932;2023-09-12T07:52:37;101305.88;;;21.20;100.00
74529;BME280;63009;52.584;5.932;2023-09-12T07:55:03;101305.88;;;21.29;100.00
74529;BME280;63009;52.584;5.932;2023-09-12T07:57:29;101310.59;;;21.45;100.00
74529;BME280;63009;52.584;5.932;2023-09-12T07:59:55;101308.63;;;21.47;100.00
74529;BME280;63009;52.584;5.932;2023-09-12T08:02:21;101313.38;;;21.53;100.00
74529;BME280;63009;52.584;5.932;2023-09-12T08:04:46;101306.56;;;21.59;100.00
74529;BME280;63009;52.584;5.932;2023-09-12T08:07:11;101315.94;;;21.55;100.00
74529;BME280;63009;52.584;5.932;2023-09-12T08:09:54;101317.16;;;21.33;100.00
74529;BME280;63009;52.584;5.932;2023-09-12T08:12:21;101312.63;;;21.24;100.00
74529;BME280;63009;52.584;5.932;2023-09-12T08:14:46;101308.56;;;21.20;100.00
74529;BME280;63009;52.584;5.932;2023-09-12T08:17:12;101305.16;;;21.18;100.00
74529;BME280;63009;52.584;5.932;2023-09-12T08:19:38;101315.78;;;21.19;100.00
74529;BME280;63009;52.584;5.932;2023-09-12T08:22:05;101321.47;;;21.26;100.00
74529;BME280;63009;52.584;5.932;2023-09-12T08:24:30;101316.31;;;21.23;100.00
74529;BME280;63009;52.584;5.932;2023-09-12T08:26:55;101324.16;;;21.26;100.00
74529;BME280;63009;52.584;5.932;2023-09-12T08:29:21;101321.84;;;21.31;100.00
74529;BME280;63009;52.584;5.932;2023-09-12T08:31:46;101322.53;;;21.33;100.00
74529;BME280;63009;52.584;5.932;2023-09-12T08:34:12;101315.31;;;21.33;100.00
74529;BME280;63009;52.584;5.932;2023-09-12T08:36:37;101312.53;;;21.53;100.00
74529;BME280;63009;52.584;5.932;2023-09-12T08:39:03;101330.19;;;21.65;100.00
74529;BME280;63009;52.584;5.932;2023-09-12T08:41:29;101304.13;;;21.66;100.00
74529;BME280;63009;52.584;5.932;2023-09-12T08:43:55;101304.25;;;21.91;100.00
74529;BME280;63009;52.584;5.932;2023-09-12T08:46:21;101314.47;;;22.15;100.00
74529;BME280;63009;52.584;5.932;2023-09-12T08:48:49;101302.78;;;22.25;100.00
74529;BME280;63009;52.584;5.932;2023-09-12T08:51:14;101313.72;;;22.41;100.00
74529;BME280;63009;52.584;5.932;2023-09-12T08:53:40;101298.53;;;22.40;100.00
74529;BME280;63009;52.584;5.932;2023-09-12T08:56:05;101316.13;;;22.52;100.00
74529;BME280;63009;52.584;5.932;2023-09-12T08:58:32;101318.31;;;22.48;100.00
74529;BME280;63009;52.584;5.932;2023-09-12T09:00:58;101311.53;;;22.44;100.00
74529;BME280;63009;52.584;5.932;2023-09-12T09:03:24;101311.06;;;22.49;100.00
74529;BME280;63009;52.584;5.932;2023-09-12T09:05:51;101319.53;;;22.54;100.00
74529;BME280;63009;52.584;5.932;2023-09-12T09:08:17;101307.38;;;22.50;100.00
74529;BME280;63009;52.584;5.932;2023-09-12T09:10:59;101312.00;;;22.58;100.00
74529;BME280;63009;52.584;5.932;2023-09-12T09:13:27;101325.66;;;22.64;100.00
74529;BME280;63009;52.584;5.932;2023-09-12T09:16:10;101320.69;;;22.69;100.00
74529;BME280;63009;52.584;5.932;2023-09-12T09:18:53;101319.16;;;22.67;100.00
74529;BME280;63009;52.584;5.932;2023-09-12T09:21:20;101327.75;;;22.70;100.00
74529;BME280;63009;52.584;5.932;2023-09-12T09:23:46;101317.34;;;22.75;100.00
74529;BME280;63009;52.584;5.932;2023-09-12T09:26:12;101343.19;;;23.04;100.00
74529;BME280;63009;52.584;5.932;2023-09-12T09:28:37;101325.56;;;23.18;100.00
74529;BME280;63009;52.584;5.932;2023-09-12T09:31:04;101316.03;;;23.23;100.00
74529;BME280;63009;52.584;5.932;2023-09-12T09:33:35;101323.28;;;23.31;100.00
74529;BME280;63009;52.584;5.932;2023-09-12T09:36:05;101338.75;;;23.55;100.00
74529;BME280;63009;52.584;5.932;2023-09-12T09:38:31;101332.16;;;23.83;100.00
74529;BME280;63009;52.584;5.932;2023-09-12T09:40:57;101343.91;;;24.24;100.00
74529;BME280;63009;52.584;5.932;2023-09-12T09:43:22;101337.72;;;24.56;100.00
74529;BME280;63009;52.584;5.932;2023-09-12T09:45:48;101337.72;;;24.56;95.29
74529;BME280;63009;52.584;5.932;2023-09-12T09:48:24;101329.25;;;24.76;97.33
74529;BME280;63009;52.584;5.932;2023-09-12T09:50:52;101331.44;;;24.88;98.67
74529;BME280;63009;52.584;5.932;2023-09-12T09:53:23;101335.47;;;25.17;97.10
74529;BME280;63009;52.584;5.932;2023-09-12T09:55:50;101317.91;;;25.05;94.60
74529;BME280;63009;52.584;5.932;2023-09-12T09:58:16;101328.19;;;25.17;92.53
74529;BME280;63009;52.584;5.932;2023-09-12T10:00:44;101329.53;;;25.30;93.43
74529;BME280;63009;52.584;5.932;2023-09-12T10:03:14;101336.94;;;25.44;90.91
74529;BME280;63009;52.584;5.932;2023-09-12T10:05:41;101323.16;;;25.62;91.14
74529;BME280;63009;52.584;5.932;2023-09-12T10:08:07;101338.75;;;25.99;91.31
74529;BME280;63009;52.584;5.932;2023-09-12T10:10:34;101328.81;;;26.14;88.81
74529;BME280;63009;52.584;5.932;2023-09-12T10:13:03;101330.75;;;26.28;88.19
74529;BME280;63009;52.584;5.932;2023-09-12T10:15:30;101318.63;;;26.16;86.45
74529;BME280;63009;52.584;5.932;2023-09-12T10:17:57;101321.88;;;26.43;86.48
74529;BME280;63009;52.584;5.932;2023-09-12T10:20:28;101331.31;;;26.70;86.50
74529;BME280;63009;52.584;5.932;2023-09-12T10:23:07;101341.72;;;27.04;85.14
74529;BME280;63009;52.584;5.932;2023-09-12T10:25:36;101339.50;;;26.99;82.68
74529;BME280;63009;52.584;5.932;2023-09-12T10:28:04;101328.16;;;27.18;82.37
74529;BME280;63009;52.584;5.932;2023-09-12T10:30:31;101334.72;;;27.39;81.89
74529;BME280;63009;52.584;5.932;2023-09-12T10:32:57;101339.38;;;27.60;81.04
74529;BME280;63009;52.584;5.932;2023-09-12T10:35:22;101344.66;;;27.46;78.43
74529;BME280;63009;52.584;5.932;2023-09-12T10:37:49;101342.47;;;27.57;81.42
74529;BME280;63009;52.584;5.932;2023-09-12T10:40:14;101331.06;;;27.46;78.24
74529;BME280;63009;52.584;5.932;2023-09-12T10:42:41;101350.44;;;27.43;76.75
74529;BME280;63009;52.584;5.932;2023-09-12T10:45:07;101333.09;;;27.15;81.07
74529;BME280;63009;52.584;5.932;2023-09-12T10:47:35;101338.44;;;27.23;79.92
74529;BME280;63009;52.584;5.932;2023-09-12T10:50:01;101344.53;;;27.25;78.90
74529;BME280;63009;52.584;5.932;2023-09-12T10:52:28;101344.91;;;27.37;79.41
74529;BME280;63009;52.584;5.932;2023-09-12T10:54:53;101348.47;;;27.37;79.01
74529;BME280;63009;52.584;5.932;2023-09-12T10:57:19;101347.72;;;27.43;78.31
74529;BME280;63009;52.584;5.932;2023-09-12T11:02:30;101329.72;;;27.57;80.05
74529;BME280;63009;52.584;5.932;2023-09-12T11:04:56;101345.47;;;27.76;76.41
74529;BME280;63009;52.584;5.932;2023-09-12T11:13:01;101350.97;;;28.55;78.89
74529;BME280;63009;52.584;5.932;2023-09-12T11:15:27;101360.41;;;28.81;75.65
74529;BME280;63009;52.584;5.932;2023-09-12T11:18:01;101350.72;;;29.00;75.08
74529;BME280;63009;52.584;5.932;2023-09-12T11:20:59;101357.56;;;28.67;70.49
74529;BME280;63009;52.584;5.932;2023-09-12T11:23:25;101354.91;;;28.53;72.95
74529;BME280;63009;52.584;5.932;2023-09-12T11:26:07;101365.72;;;28.10;71.36
74529;BME280;63009;52.584;5.932;2023-09-12T11:28:32;101356.09;;;28.07;76.06
74529;BME280;63009;52.584;5.932;2023-09-12T11:30:58;101347.28;;;28.05;72.97
74529;BME280;63009;52.584;5.932;2023-09-12T11:33:27;101341.53;;;28.15;74.15
74529;BME280;63009;52.584;5.932;2023-09-12T11:35:53;101344.31;;;28.22;74.65
74529;BME280;63009;52.584;5.932;2023-09-12T11:38:29;101338.06;;;28.21;72.93
74529;BME280;63009;52.584;5.932;2023-09-12T11:40:55;101333.50;;;28.07;72.00
74529;BME280;63009;52.584;5.932;2023-09-12T11:43:25;101330.91;;;27.99;71.31
74529;BME280;63009;52.584;5.932;2023-09-12T11:45:51;101339.53;;;28.02;73.29
74529;BME280;63009;52.584;5.932;2023-09-12T11:48:18;101331.25;;;28.10;75.84
74529;BME280;63009;52.584;5.932;2023-09-12T11:50:52;101336.69;;;28.10;76.00
74529;BME280;63009;52.584;5.932;2023-09-12T11:53:20;101326.25;;;27.93;74.31
74529;BME280;63009;52.584;5.932;2023-09-12T11:55:48;101332.41;;;27.87;73.66
74529;BME280;63009;52.584;5.932;2023-09-12T11:58:16;101321.69;;;27.78;75.65
74529;BME280;63009;52.584;5.932;2023-09-12T12:00:47;101344.81;;;28.10;76.01
74529;BME280;63009;52.584;5.932;2023-09-12T12:03:14;101327.69;;;28.10;74.46
74529;BME280;63009;52.584;5.932;2023-09-12T12:05:40;101326.19;;;28.07;75.93
74529;BME280;63009;52.584;5.932;2023-09-12T12:08:07;101318.28;;;28.13;73.62
74529;BME280;63009;52.584;5.932;2023-09-12T12:10:33;101319.88;;;28.22;73.61
74529;BME280;63009;52.584;5.932;2023-09-12T12:12:59;101308.72;;;28.31;72.81
74529;BME280;63009;52.584;5.932;2023-09-12T12:15:27;101312.63;;;28.50;72.03
74529;BME280;63009;52.584;5.932;2023-09-12T12:17:54;101293.06;;;28.61;69.88
74529;BME280;63009;52.584;5.932;2023-09-12T12:20:22;101314.59;;;28.84;72.64
74529;BME280;63009;52.584;5.932;2023-09-12T12:22:47;101308.22;;;28.98;72.08
74529;BME280;63009;52.584;5.932;2023-09-12T12:25:14;101310.66;;;29.15;69.09
74529;BME280;63009;52.584;5.932;2023-09-12T12:27:41;101304.97;;;29.10;64.86
74529;BME280;63009;52.584;5.932;2023-09-12T12:30:11;101307.81;;;29.30;67.82
74529;BME280;63009;52.584;5.932;2023-09-12T12:32:41;101283.66;;;29.20;68.85
74529;BME280;63009;52.584;5.932;2023-09-12T12:35:07;101289.72;;;29.15;67.98
74529;BME280;63009;52.584;5.932;2023-09-12T12:37:32;101278.16;;;29.13;68.70
74529;BME280;63009;52.584;5.932;2023-09-12T12:39:58;101295.63;;;28.91;68.29
74529;BME280;63009;52.584;5.932;2023-09-12T12:42:25;101296.69;;;28.96;66.74
74529;BME280;63009;52.584;5.932;2023-09-12T12:44:54;101285.06;;;28.81;68.94
74529;BME280;63009;52.584;5.932;2023-09-12T12:47:21;101297.22;;;28.85;66.99
74529;BME280;63009;52.584;5.932;2023-09-12T12:49:51;101282.53;;;29.01;66.24
74529;BME280;63009;52.584;5.932;2023-09-12T12:52:22;101280.34;;;28.90;66.81
74529;BME280;63009;52.584;5.932;2023-09-12T12:54:47;101292.50;;;28.94;64.24